<?xml version="1.0" encoding="UTF-8" standalone="no" ?>
<gpx xmlns="http://www.topografix.com/GPX/1/1" xmlns:xsi="http://www.w3.org/2001/XMLSchema-instance" xsi:schemaLocation="http://www.topografix.com/GPX/1/1 http://www.topografix.com/GPX/1/1/gpx.xsd" version="1.1" creator="VisuGPX - https://www.visugpx.com">
  <metadata>
    <name>Montclar de Comminges 2018-04-20-01</name>
    <desc><![CDATA[
]]></desc>
  </metadata>
  <trk>
    <name><![CDATA[Montclar de Comminges 2018-04-20-01]]></name>
    <trkseg>
      <trkpt lat="43.1768" lon="1.0213">
        <ele>390.2</ele>
        <time>2018-04-20T08:22:57.000Z</time>
      </trkpt>
      <trkpt lat="43.1768" lon="1.0213">
        <ele>390.2</ele>
        <time>2018-04-20T08:22:58.000Z</time>
      </trkpt>
      <trkpt lat="43.17664" lon="1.02083">
        <ele>389.4</ele>
        <time>2018-04-20T08:28:59.000Z</time>
      </trkpt>
      <trkpt lat="43.17654" lon="1.02034">
        <ele>386.5</ele>
        <time>2018-04-20T08:29:10.000Z</time>
      </trkpt>
      <trkpt lat="43.17645" lon="1.01986">
        <ele>382.7</ele>
        <time>2018-04-20T08:29:21.000Z</time>
      </trkpt>
      <trkpt lat="43.17645" lon="1.01934">
        <ele>378.5</ele>
        <time>2018-04-20T08:29:32.000Z</time>
      </trkpt>
      <trkpt lat="43.17638" lon="1.01885">
        <ele>370.3</ele>
        <time>2018-04-20T08:29:59.000Z</time>
      </trkpt>
      <trkpt lat="43.17609" lon="1.01849">
        <ele>366.6</ele>
        <time>2018-04-20T08:30:12.000Z</time>
      </trkpt>
      <trkpt lat="43.17574" lon="1.01828">
        <ele>363.4</ele>
        <time>2018-04-20T08:30:21.000Z</time>
      </trkpt>
      <trkpt lat="43.17536" lon="1.01808">
        <ele>359.7</ele>
        <time>2018-04-20T08:30:30.000Z</time>
      </trkpt>
      <trkpt lat="43.175" lon="1.01788">
        <ele>356.1</ele>
        <time>2018-04-20T08:30:38.000Z</time>
      </trkpt>
      <trkpt lat="43.17466" lon="1.01771">
        <ele>353.2</ele>
        <time>2018-04-20T08:30:45.000Z</time>
      </trkpt>
      <trkpt lat="43.17429" lon="1.01751">
        <ele>350</ele>
        <time>2018-04-20T08:30:53.000Z</time>
      </trkpt>
      <trkpt lat="43.17392" lon="1.01745">
        <ele>345.9</ele>
        <time>2018-04-20T08:31:7.000Z</time>
      </trkpt>
      <trkpt lat="43.17354" lon="1.01743">
        <ele>343.7</ele>
        <time>2018-04-20T08:31:22.000Z</time>
      </trkpt>
      <trkpt lat="43.17317" lon="1.01742">
        <ele>343.7</ele>
        <time>2018-04-20T08:31:37.000Z</time>
      </trkpt>
      <trkpt lat="43.17279" lon="1.01748">
        <ele>345.4</ele>
        <time>2018-04-20T08:31:52.000Z</time>
      </trkpt>
      <trkpt lat="43.17245" lon="1.01769">
        <ele>348.1</ele>
        <time>2018-04-20T08:32:7.000Z</time>
      </trkpt>
      <trkpt lat="43.17216" lon="1.018">
        <ele>351.4</ele>
        <time>2018-04-20T08:32:22.000Z</time>
      </trkpt>
      <trkpt lat="43.17215" lon="1.01849">
        <ele>354.9</ele>
        <time>2018-04-20T08:32:38.000Z</time>
      </trkpt>
      <trkpt lat="43.17181" lon="1.01868">
        <ele>358.6</ele>
        <time>2018-04-20T08:32:55.000Z</time>
      </trkpt>
      <trkpt lat="43.17144" lon="1.01869">
        <ele>362.4</ele>
        <time>2018-04-20T08:33:13.000Z</time>
      </trkpt>
      <trkpt lat="43.17122" lon="1.01827">
        <ele>366.6</ele>
        <time>2018-04-20T08:33:33.000Z</time>
      </trkpt>
      <trkpt lat="43.17104" lon="1.01783">
        <ele>370.2</ele>
        <time>2018-04-20T08:33:50.000Z</time>
      </trkpt>
      <trkpt lat="43.17088" lon="1.01738">
        <ele>373.6</ele>
        <time>2018-04-20T08:34:8.000Z</time>
      </trkpt>
      <trkpt lat="43.17057" lon="1.01766">
        <ele>378.7</ele>
        <time>2018-04-20T08:35:9.000Z</time>
      </trkpt>
      <trkpt lat="43.17048" lon="1.01816">
        <ele>378.7</ele>
        <time>2018-04-20T08:35:22.000Z</time>
      </trkpt>
      <trkpt lat="43.17012" lon="1.01818">
        <ele>378.9</ele>
        <time>2018-04-20T08:35:45.000Z</time>
      </trkpt>
      <trkpt lat="43.16974" lon="1.01805">
        <ele>376.9</ele>
        <time>2018-04-20T08:35:54.000Z</time>
      </trkpt>
      <trkpt lat="43.16935" lon="1.01792">
        <ele>373.4</ele>
        <time>2018-04-20T08:36:3.000Z</time>
      </trkpt>
      <trkpt lat="43.169" lon="1.01778">
        <ele>369.3</ele>
        <time>2018-04-20T08:36:11.000Z</time>
      </trkpt>
      <trkpt lat="43.16864" lon="1.01766">
        <ele>364.4</ele>
        <time>2018-04-20T08:36:20.000Z</time>
      </trkpt>
      <trkpt lat="43.16829" lon="1.01784">
        <ele>357.5</ele>
        <time>2018-04-20T08:36:40.000Z</time>
      </trkpt>
      <trkpt lat="43.16794" lon="1.01804">
        <ele>357.2</ele>
        <time>2018-04-20T08:37:0.000Z</time>
      </trkpt>
      <trkpt lat="43.16759" lon="1.01815">
        <ele>360.4</ele>
        <time>2018-04-20T08:37:20.000Z</time>
      </trkpt>
      <trkpt lat="43.16721" lon="1.01825">
        <ele>363.2</ele>
        <time>2018-04-20T08:37:38.000Z</time>
      </trkpt>
      <trkpt lat="43.16685" lon="1.01837">
        <ele>366.9</ele>
        <time>2018-04-20T08:37:59.000Z</time>
      </trkpt>
      <trkpt lat="43.16649" lon="1.01851">
        <ele>370.8</ele>
        <time>2018-04-20T08:38:21.000Z</time>
      </trkpt>
      <trkpt lat="43.16614" lon="1.01863">
        <ele>374</ele>
        <time>2018-04-20T08:39:11.000Z</time>
      </trkpt>
      <trkpt lat="43.16579" lon="1.01881">
        <ele>376.4</ele>
        <time>2018-04-20T08:39:32.000Z</time>
      </trkpt>
      <trkpt lat="43.16545" lon="1.01861">
        <ele>380.1</ele>
        <time>2018-04-20T08:39:58.000Z</time>
      </trkpt>
      <trkpt lat="43.16528" lon="1.01816">
        <ele>384.2</ele>
        <time>2018-04-20T08:40:38.000Z</time>
      </trkpt>
      <trkpt lat="43.16511" lon="1.01772">
        <ele>387.9</ele>
        <time>2018-04-20T08:41:14.000Z</time>
      </trkpt>
      <trkpt lat="43.16481" lon="1.01744">
        <ele>392.1</ele>
        <time>2018-04-20T08:41:46.000Z</time>
      </trkpt>
      <trkpt lat="43.16445" lon="1.01732">
        <ele>395</ele>
        <time>2018-04-20T08:42:13.000Z</time>
      </trkpt>
      <trkpt lat="43.16409" lon="1.01732">
        <ele>399.2</ele>
        <time>2018-04-20T08:42:48.000Z</time>
      </trkpt>
      <trkpt lat="43.16372" lon="1.01741">
        <ele>400.5</ele>
        <time>2018-04-20T08:43:4.000Z</time>
      </trkpt>
      <trkpt lat="43.16337" lon="1.01761">
        <ele>401.3</ele>
        <time>2018-04-20T08:43:19.000Z</time>
      </trkpt>
      <trkpt lat="43.16302" lon="1.01746">
        <ele>400.2</ele>
        <time>2018-04-20T08:43:57.000Z</time>
      </trkpt>
      <trkpt lat="43.16265" lon="1.0174">
        <ele>401.7</ele>
        <time>2018-04-20T08:44:27.000Z</time>
      </trkpt>
      <trkpt lat="43.16229" lon="1.01749">
        <ele>403.7</ele>
        <time>2018-04-20T08:44:47.000Z</time>
      </trkpt>
      <trkpt lat="43.16196" lon="1.01731">
        <ele>410.9</ele>
        <time>2018-04-20T08:45:56.000Z</time>
      </trkpt>
      <trkpt lat="43.16177" lon="1.01688">
        <ele>417.8</ele>
        <time>2018-04-20T08:46:41.000Z</time>
      </trkpt>
      <trkpt lat="43.16158" lon="1.01647">
        <ele>428.6</ele>
        <time>2018-04-20T08:47:51.000Z</time>
      </trkpt>
      <trkpt lat="43.16172" lon="1.01601">
        <ele>437.2</ele>
        <time>2018-04-20T08:49:4.000Z</time>
      </trkpt>
      <trkpt lat="43.16185" lon="1.01555">
        <ele>445</ele>
        <time>2018-04-20T08:50:2.000Z</time>
      </trkpt>
      <trkpt lat="43.16189" lon="1.01506">
        <ele>451.4</ele>
        <time>2018-04-20T08:50:39.000Z</time>
      </trkpt>
      <trkpt lat="43.16192" lon="1.01456">
        <ele>460.5</ele>
        <time>2018-04-20T08:51:50.000Z</time>
      </trkpt>
      <trkpt lat="43.16197" lon="1.01407">
        <ele>468.6</ele>
        <time>2018-04-20T08:52:51.000Z</time>
      </trkpt>
      <trkpt lat="43.16201" lon="1.01358">
        <ele>472.8</ele>
        <time>2018-04-20T08:53:28.000Z</time>
      </trkpt>
      <trkpt lat="43.16199" lon="1.01309">
        <ele>476.6</ele>
        <time>2018-04-20T08:54:6.000Z</time>
      </trkpt>
      <trkpt lat="43.16209" lon="1.01261">
        <ele>479.8</ele>
        <time>2018-04-20T08:54:43.000Z</time>
      </trkpt>
      <trkpt lat="43.16177" lon="1.01284">
        <ele>490</ele>
        <time>2018-04-20T08:58:19.000Z</time>
      </trkpt>
      <trkpt lat="43.16151" lon="1.01319">
        <ele>500.3</ele>
        <time>2018-04-20T08:59:11.000Z</time>
      </trkpt>
      <trkpt lat="43.16128" lon="1.01357">
        <ele>509.4</ele>
        <time>2018-04-20T09:00:14.000Z</time>
      </trkpt>
      <trkpt lat="43.16103" lon="1.01393">
        <ele>516.2</ele>
        <time>2018-04-20T09:00:57.000Z</time>
      </trkpt>
      <trkpt lat="43.16074" lon="1.01424">
        <ele>527.7</ele>
        <time>2018-04-20T09:02:7.000Z</time>
      </trkpt>
      <trkpt lat="43.16041" lon="1.01446">
        <ele>535</ele>
        <time>2018-04-20T09:03:0.000Z</time>
      </trkpt>
      <trkpt lat="43.16006" lon="1.01441">
        <ele>545.1</ele>
        <time>2018-04-20T09:04:13.000Z</time>
      </trkpt>
      <trkpt lat="43.15993" lon="1.01436">
        <ele>515</ele>
        <time>2018-04-20T09:05:59.000Z</time>
      </trkpt>
      <trkpt lat="43.15979" lon="1.01433">
        <ele>521.8</ele>
        <time>2018-04-20T09:21:8.000Z</time>
      </trkpt>
      <trkpt lat="43.15968" lon="1.0143">
        <ele>526.9</ele>
        <time>2018-04-20T09:21:46.000Z</time>
      </trkpt>
      <trkpt lat="43.15951" lon="1.01424">
        <ele>548.6</ele>
        <time>2018-04-20T09:24:22.000Z</time>
      </trkpt>
      <trkpt lat="43.15915" lon="1.01431">
        <ele>552.8</ele>
        <time>2018-04-20T09:25:23.000Z</time>
      </trkpt>
      <trkpt lat="43.15891" lon="1.01394">
        <ele>555.6</ele>
        <time>2018-04-20T09:27:5.000Z</time>
      </trkpt>
      <trkpt lat="43.15861" lon="1.01365">
        <ele>553.9</ele>
        <time>2018-04-20T09:28:6.000Z</time>
      </trkpt>
      <trkpt lat="43.15832" lon="1.01334">
        <ele>552.1</ele>
        <time>2018-04-20T09:28:43.000Z</time>
      </trkpt>
      <trkpt lat="43.15799" lon="1.01355">
        <ele>550.7</ele>
        <time>2018-04-20T09:29:32.000Z</time>
      </trkpt>
      <trkpt lat="43.15791" lon="1.01406">
        <ele>551.4</ele>
        <time>2018-04-20T09:29:52.000Z</time>
      </trkpt>
      <trkpt lat="43.15778" lon="1.01453">
        <ele>552.3</ele>
        <time>2018-04-20T09:30:8.000Z</time>
      </trkpt>
      <trkpt lat="43.15785" lon="1.01502">
        <ele>553.1</ele>
        <time>2018-04-20T09:30:25.000Z</time>
      </trkpt>
      <trkpt lat="43.15787" lon="1.01553">
        <ele>555</ele>
        <time>2018-04-20T09:30:43.000Z</time>
      </trkpt>
      <trkpt lat="43.1578" lon="1.01605">
        <ele>555.6</ele>
        <time>2018-04-20T09:32:9.000Z</time>
      </trkpt>
      <trkpt lat="43.15775" lon="1.01654">
        <ele>555.1</ele>
        <time>2018-04-20T09:32:23.000Z</time>
      </trkpt>
      <trkpt lat="43.1576" lon="1.01702">
        <ele>554.3</ele>
        <time>2018-04-20T09:32:36.000Z</time>
      </trkpt>
      <trkpt lat="43.15749" lon="1.01753">
        <ele>552.6</ele>
        <time>2018-04-20T09:32:49.000Z</time>
      </trkpt>
      <trkpt lat="43.15747" lon="1.01803">
        <ele>551</ele>
        <time>2018-04-20T09:33:3.000Z</time>
      </trkpt>
      <trkpt lat="43.15755" lon="1.01853">
        <ele>545.1</ele>
        <time>2018-04-20T09:36:55.000Z</time>
      </trkpt>
      <trkpt lat="43.15751" lon="1.01902">
        <ele>548.5</ele>
        <time>2018-04-20T09:37:11.000Z</time>
      </trkpt>
      <trkpt lat="43.15747" lon="1.01953">
        <ele>551.7</ele>
        <time>2018-04-20T09:37:27.000Z</time>
      </trkpt>
      <trkpt lat="43.15745" lon="1.02005">
        <ele>554.2</ele>
        <time>2018-04-20T09:37:42.000Z</time>
      </trkpt>
      <trkpt lat="43.15752" lon="1.02055">
        <ele>555.4</ele>
        <time>2018-04-20T09:37:59.000Z</time>
      </trkpt>
      <trkpt lat="43.15757" lon="1.02106">
        <ele>555.4</ele>
        <time>2018-04-20T09:38:12.000Z</time>
      </trkpt>
      <trkpt lat="43.15751" lon="1.02156">
        <ele>555.5</ele>
        <time>2018-04-20T09:38:31.000Z</time>
      </trkpt>
      <trkpt lat="43.15773" lon="1.02195">
        <ele>556.8</ele>
        <time>2018-04-20T09:39:16.000Z</time>
      </trkpt>
      <trkpt lat="43.15805" lon="1.02222">
        <ele>563.2</ele>
        <time>2018-04-20T09:40:3.000Z</time>
      </trkpt>
      <trkpt lat="43.1584" lon="1.02232">
        <ele>569.1</ele>
        <time>2018-04-20T09:40:42.000Z</time>
      </trkpt>
      <trkpt lat="43.15866" lon="1.02268">
        <ele>580.3</ele>
        <time>2018-04-20T09:41:53.000Z</time>
      </trkpt>
      <trkpt lat="43.15901" lon="1.02285">
        <ele>586.5</ele>
        <time>2018-04-20T09:42:39.000Z</time>
      </trkpt>
      <trkpt lat="43.15937" lon="1.02282">
        <ele>591.5</ele>
        <time>2018-04-20T09:43:16.000Z</time>
      </trkpt>
      <trkpt lat="43.15958" lon="1.02322">
        <ele>604.6</ele>
        <time>2018-04-20T09:44:47.000Z</time>
      </trkpt>
      <trkpt lat="43.15963" lon="1.02371">
        <ele>616.5</ele>
        <time>2018-04-20T09:46:4.000Z</time>
      </trkpt>
      <trkpt lat="43.15939" lon="1.02407">
        <ele>621.4</ele>
        <time>2018-04-20T09:47:1.000Z</time>
      </trkpt>
      <trkpt lat="43.15913" lon="1.02444">
        <ele>621.1</ele>
        <time>2018-04-20T09:47:39.000Z</time>
      </trkpt>
      <trkpt lat="43.15884" lon="1.02474">
        <ele>616.5</ele>
        <time>2018-04-20T09:50:13.000Z</time>
      </trkpt>
      <trkpt lat="43.15848" lon="1.02492">
        <ele>612.1</ele>
        <time>2018-04-20T09:50:27.000Z</time>
      </trkpt>
      <trkpt lat="43.15821" lon="1.02526">
        <ele>605.8</ele>
        <time>2018-04-20T09:50:42.000Z</time>
      </trkpt>
      <trkpt lat="43.15795" lon="1.0256">
        <ele>599.6</ele>
        <time>2018-04-20T09:50:56.000Z</time>
      </trkpt>
      <trkpt lat="43.15777" lon="1.02604">
        <ele>594.7</ele>
        <time>2018-04-20T09:51:6.000Z</time>
      </trkpt>
      <trkpt lat="43.15747" lon="1.02639">
        <ele>585.9</ele>
        <time>2018-04-20T09:51:31.000Z</time>
      </trkpt>
      <trkpt lat="43.15717" lon="1.02664">
        <ele>581.4</ele>
        <time>2018-04-20T09:51:44.000Z</time>
      </trkpt>
      <trkpt lat="43.15685" lon="1.02693">
        <ele>575.2</ele>
        <time>2018-04-20T09:52:0.000Z</time>
      </trkpt>
      <trkpt lat="43.15656" lon="1.02726">
        <ele>569.4</ele>
        <time>2018-04-20T09:52:13.000Z</time>
      </trkpt>
      <trkpt lat="43.15627" lon="1.02759">
        <ele>563</ele>
        <time>2018-04-20T09:52:28.000Z</time>
      </trkpt>
      <trkpt lat="43.15601" lon="1.02794">
        <ele>556.4</ele>
        <time>2018-04-20T09:52:44.000Z</time>
      </trkpt>
      <trkpt lat="43.15578" lon="1.02833">
        <ele>550.5</ele>
        <time>2018-04-20T09:52:57.000Z</time>
      </trkpt>
      <trkpt lat="43.15555" lon="1.02871">
        <ele>545.2</ele>
        <time>2018-04-20T09:53:10.000Z</time>
      </trkpt>
      <trkpt lat="43.15539" lon="1.02916">
        <ele>537.8</ele>
        <time>2018-04-20T09:53:29.000Z</time>
      </trkpt>
      <trkpt lat="43.15536" lon="1.02939">
        <ele>551.3</ele>
        <time>2018-04-20T09:54:37.000Z</time>
      </trkpt>
      <trkpt lat="43.15546" lon="1.0299">
        <ele>548.2</ele>
        <time>2018-04-20T09:55:50.000Z</time>
      </trkpt>
      <trkpt lat="43.15576" lon="1.03008">
        <ele>554</ele>
        <time>2018-04-20T09:56:8.000Z</time>
      </trkpt>
      <trkpt lat="43.15584" lon="1.03055">
        <ele>519.6</ele>
        <time>2018-04-20T09:56:24.000Z</time>
      </trkpt>
      <trkpt lat="43.15571" lon="1.03102">
        <ele>529.5</ele>
        <time>2018-04-20T09:56:34.000Z</time>
      </trkpt>
      <trkpt lat="43.15561" lon="1.03145">
        <ele>511.5</ele>
        <time>2018-04-20T09:57:2.000Z</time>
      </trkpt>
      <trkpt lat="43.15521" lon="1.03107">
        <ele>518.1</ele>
        <time>2018-04-20T09:57:16.000Z</time>
      </trkpt>
      <trkpt lat="43.15462" lon="1.03115">
        <ele>502.1</ele>
        <time>2018-04-20T09:57:32.000Z</time>
      </trkpt>
      <trkpt lat="43.15426" lon="1.03117">
        <ele>502.9</ele>
        <time>2018-04-20T09:57:48.000Z</time>
      </trkpt>
      <trkpt lat="43.15405" lon="1.03101">
        <ele>506.3</ele>
        <time>2018-04-20T09:58:27.000Z</time>
      </trkpt>
      <trkpt lat="43.15365" lon="1.03166">
        <ele>508.2</ele>
        <time>2018-04-20T09:58:50.000Z</time>
      </trkpt>
      <trkpt lat="43.15352" lon="1.03213">
        <ele>511.5</ele>
        <time>2018-04-20T09:59:13.000Z</time>
      </trkpt>
      <trkpt lat="43.15328" lon="1.03253">
        <ele>515</ele>
        <time>2018-04-20T09:59:35.000Z</time>
      </trkpt>
      <trkpt lat="43.15317" lon="1.033">
        <ele>517.5</ele>
        <time>2018-04-20T09:59:54.000Z</time>
      </trkpt>
      <trkpt lat="43.15307" lon="1.03349">
        <ele>521.9</ele>
        <time>2018-04-20T10:00:29.000Z</time>
      </trkpt>
      <trkpt lat="43.15287" lon="1.03387">
        <ele>534.5</ele>
        <time>2018-04-20T10:01:1.000Z</time>
      </trkpt>
      <trkpt lat="43.15284" lon="1.03436">
        <ele>532.1</ele>
        <time>2018-04-20T10:01:51.000Z</time>
      </trkpt>
      <trkpt lat="43.15278" lon="1.03485">
        <ele>538.3</ele>
        <time>2018-04-20T10:02:26.000Z</time>
      </trkpt>
      <trkpt lat="43.15273" lon="1.03519">
        <ele>558.5</ele>
        <time>2018-04-20T10:03:27.000Z</time>
      </trkpt>
      <trkpt lat="43.15272" lon="1.03535">
        <ele>561</ele>
        <time>2018-04-20T11:06:0.000Z</time>
      </trkpt>
      <trkpt lat="43.15272" lon="1.03556">
        <ele>564</ele>
        <time>2018-04-20T11:07:4.000Z</time>
      </trkpt>
      <trkpt lat="43.15274" lon="1.03603">
        <ele>568.7</ele>
        <time>2018-04-20T11:07:39.000Z</time>
      </trkpt>
      <trkpt lat="43.15272" lon="1.03652">
        <ele>572.1</ele>
        <time>2018-04-20T11:08:17.000Z</time>
      </trkpt>
      <trkpt lat="43.15267" lon="1.03701">
        <ele>568.5</ele>
        <time>2018-04-20T11:08:48.000Z</time>
      </trkpt>
      <trkpt lat="43.15249" lon="1.03745">
        <ele>574.4</ele>
        <time>2018-04-20T11:09:11.000Z</time>
      </trkpt>
      <trkpt lat="43.15232" lon="1.03788">
        <ele>569.3</ele>
        <time>2018-04-20T11:09:23.000Z</time>
      </trkpt>
      <trkpt lat="43.15223" lon="1.03833">
        <ele>564.6</ele>
        <time>2018-04-20T11:09:48.000Z</time>
      </trkpt>
      <trkpt lat="43.15244" lon="1.03881">
        <ele>562.5</ele>
        <time>2018-04-20T11:10:21.000Z</time>
      </trkpt>
      <trkpt lat="43.15244" lon="1.03933">
        <ele>564.6</ele>
        <time>2018-04-20T11:11:33.000Z</time>
      </trkpt>
      <trkpt lat="43.15254" lon="1.03982">
        <ele>567.1</ele>
        <time>2018-04-20T11:12:10.000Z</time>
      </trkpt>
      <trkpt lat="43.15269" lon="1.04027">
        <ele>575.9</ele>
        <time>2018-04-20T11:13:7.000Z</time>
      </trkpt>
      <trkpt lat="43.15276" lon="1.04077">
        <ele>583.1</ele>
        <time>2018-04-20T11:13:46.000Z</time>
      </trkpt>
      <trkpt lat="43.15265" lon="1.04124">
        <ele>587.1</ele>
        <time>2018-04-20T11:14:16.000Z</time>
      </trkpt>
      <trkpt lat="43.15252" lon="1.04173">
        <ele>589.2</ele>
        <time>2018-04-20T11:14:36.000Z</time>
      </trkpt>
      <trkpt lat="43.15238" lon="1.04223">
        <ele>590.1</ele>
        <time>2018-04-20T11:14:49.000Z</time>
      </trkpt>
      <trkpt lat="43.15227" lon="1.04272">
        <ele>589.9</ele>
        <time>2018-04-20T11:15:3.000Z</time>
      </trkpt>
      <trkpt lat="43.15208" lon="1.0432">
        <ele>587.9</ele>
        <time>2018-04-20T11:15:13.000Z</time>
      </trkpt>
      <trkpt lat="43.15192" lon="1.04369">
        <ele>586.5</ele>
        <time>2018-04-20T11:15:21.000Z</time>
      </trkpt>
      <trkpt lat="43.1518" lon="1.04418">
        <ele>584.9</ele>
        <time>2018-04-20T11:15:34.000Z</time>
      </trkpt>
      <trkpt lat="43.15163" lon="1.04466">
        <ele>584.6</ele>
        <time>2018-04-20T11:15:50.000Z</time>
      </trkpt>
      <trkpt lat="43.15147" lon="1.04511">
        <ele>585</ele>
        <time>2018-04-20T11:16:6.000Z</time>
      </trkpt>
      <trkpt lat="43.15131" lon="1.04555">
        <ele>586.3</ele>
        <time>2018-04-20T11:16:24.000Z</time>
      </trkpt>
      <trkpt lat="43.15112" lon="1.046">
        <ele>588</ele>
        <time>2018-04-20T11:16:44.000Z</time>
      </trkpt>
      <trkpt lat="43.15094" lon="1.04644">
        <ele>589.1</ele>
        <time>2018-04-20T11:16:59.000Z</time>
      </trkpt>
      <trkpt lat="43.15063" lon="1.04672">
        <ele>589.3</ele>
        <time>2018-04-20T11:17:13.000Z</time>
      </trkpt>
      <trkpt lat="43.1505" lon="1.0472">
        <ele>587.9</ele>
        <time>2018-04-20T11:17:32.000Z</time>
      </trkpt>
      <trkpt lat="43.15034" lon="1.04765">
        <ele>587.8</ele>
        <time>2018-04-20T11:17:51.000Z</time>
      </trkpt>
      <trkpt lat="43.15012" lon="1.04805">
        <ele>588.8</ele>
        <time>2018-04-20T11:18:5.000Z</time>
      </trkpt>
      <trkpt lat="43.14987" lon="1.04841">
        <ele>585.5</ele>
        <time>2018-04-20T11:18:40.000Z</time>
      </trkpt>
      <trkpt lat="43.14962" lon="1.04877">
        <ele>582.8</ele>
        <time>2018-04-20T11:18:57.000Z</time>
      </trkpt>
      <trkpt lat="43.14943" lon="1.04921">
        <ele>581.2</ele>
        <time>2018-04-20T11:19:16.000Z</time>
      </trkpt>
      <trkpt lat="43.14928" lon="1.04967">
        <ele>582.3</ele>
        <time>2018-04-20T11:19:50.000Z</time>
      </trkpt>
      <trkpt lat="43.14926" lon="1.05017">
        <ele>587.6</ele>
        <time>2018-04-20T11:20:29.000Z</time>
      </trkpt>
      <trkpt lat="43.14909" lon="1.05062">
        <ele>592.2</ele>
        <time>2018-04-20T11:21:4.000Z</time>
      </trkpt>
      <trkpt lat="43.14887" lon="1.05102">
        <ele>595.2</ele>
        <time>2018-04-20T11:21:34.000Z</time>
      </trkpt>
      <trkpt lat="43.14864" lon="1.05142">
        <ele>596.3</ele>
        <time>2018-04-20T11:21:57.000Z</time>
      </trkpt>
      <trkpt lat="43.1484" lon="1.05182">
        <ele>595.5</ele>
        <time>2018-04-20T11:22:13.000Z</time>
      </trkpt>
      <trkpt lat="43.14803" lon="1.05185">
        <ele>585.1</ele>
        <time>2018-04-20T11:23:7.000Z</time>
      </trkpt>
      <trkpt lat="43.14767" lon="1.05181">
        <ele>576.8</ele>
        <time>2018-04-20T11:23:34.000Z</time>
      </trkpt>
      <trkpt lat="43.14732" lon="1.05165">
        <ele>566.6</ele>
        <time>2018-04-20T11:23:57.000Z</time>
      </trkpt>
      <trkpt lat="43.14705" lon="1.05198">
        <ele>561</ele>
        <time>2018-04-20T11:24:10.000Z</time>
      </trkpt>
      <trkpt lat="43.14675" lon="1.05231">
        <ele>556.6</ele>
        <time>2018-04-20T11:24:19.000Z</time>
      </trkpt>
      <trkpt lat="43.14649" lon="1.0527">
        <ele>553.1</ele>
        <time>2018-04-20T11:24:27.000Z</time>
      </trkpt>
      <trkpt lat="43.14627" lon="1.05315">
        <ele>549.5</ele>
        <time>2018-04-20T11:24:36.000Z</time>
      </trkpt>
      <trkpt lat="43.14604" lon="1.05356">
        <ele>542.5</ele>
        <time>2018-04-20T11:25:0.000Z</time>
      </trkpt>
      <trkpt lat="43.1457" lon="1.05373">
        <ele>537</ele>
        <time>2018-04-20T11:25:17.000Z</time>
      </trkpt>
      <trkpt lat="43.14558" lon="1.05421">
        <ele>532.2</ele>
        <time>2018-04-20T11:25:29.000Z</time>
      </trkpt>
      <trkpt lat="43.14548" lon="1.05469">
        <ele>527.6</ele>
        <time>2018-04-20T11:25:39.000Z</time>
      </trkpt>
      <trkpt lat="43.14535" lon="1.05518">
        <ele>520.1</ele>
        <time>2018-04-20T11:25:52.000Z</time>
      </trkpt>
      <trkpt lat="43.14526" lon="1.05569">
        <ele>512</ele>
        <time>2018-04-20T11:26:8.000Z</time>
      </trkpt>
      <trkpt lat="43.1452" lon="1.05619">
        <ele>507.8</ele>
        <time>2018-04-20T11:26:18.000Z</time>
      </trkpt>
      <trkpt lat="43.14553" lon="1.05599">
        <ele>499.4</ele>
        <time>2018-04-20T11:27:2.000Z</time>
      </trkpt>
      <trkpt lat="43.14593" lon="1.056">
        <ele>498.5</ele>
        <time>2018-04-20T11:27:9.000Z</time>
      </trkpt>
      <trkpt lat="43.14624" lon="1.05632">
        <ele>496.9</ele>
        <time>2018-04-20T11:27:16.000Z</time>
      </trkpt>
      <trkpt lat="43.14639" lon="1.05685">
        <ele>494.7</ele>
        <time>2018-04-20T11:27:24.000Z</time>
      </trkpt>
      <trkpt lat="43.14644" lon="1.05736">
        <ele>492.4</ele>
        <time>2018-04-20T11:27:31.000Z</time>
      </trkpt>
      <trkpt lat="43.14656" lon="1.05784">
        <ele>489.4</ele>
        <time>2018-04-20T11:27:39.000Z</time>
      </trkpt>
      <trkpt lat="43.14693" lon="1.05771">
        <ele>485.9</ele>
        <time>2018-04-20T11:27:48.000Z</time>
      </trkpt>
      <trkpt lat="43.14724" lon="1.05742">
        <ele>482.6</ele>
        <time>2018-04-20T11:27:57.000Z</time>
      </trkpt>
      <trkpt lat="43.14727" lon="1.05693">
        <ele>479.2</ele>
        <time>2018-04-20T11:28:6.000Z</time>
      </trkpt>
      <trkpt lat="43.14718" lon="1.05643">
        <ele>475.9</ele>
        <time>2018-04-20T11:28:14.000Z</time>
      </trkpt>
      <trkpt lat="43.14748" lon="1.05616">
        <ele>461.1</ele>
        <time>2018-04-20T11:32:16.000Z</time>
      </trkpt>
      <trkpt lat="43.14786" lon="1.05599">
        <ele>461.6</ele>
        <time>2018-04-20T11:32:23.000Z</time>
      </trkpt>
      <trkpt lat="43.14822" lon="1.05585">
        <ele>461.4</ele>
        <time>2018-04-20T11:32:29.000Z</time>
      </trkpt>
      <trkpt lat="43.1486" lon="1.05563">
        <ele>460.6</ele>
        <time>2018-04-20T11:32:35.000Z</time>
      </trkpt>
      <trkpt lat="43.14897" lon="1.05554">
        <ele>459.2</ele>
        <time>2018-04-20T11:32:41.000Z</time>
      </trkpt>
      <trkpt lat="43.14922" lon="1.05511">
        <ele>457.6</ele>
        <time>2018-04-20T11:32:47.000Z</time>
      </trkpt>
      <trkpt lat="43.14944" lon="1.0547">
        <ele>455.5</ele>
        <time>2018-04-20T11:32:53.000Z</time>
      </trkpt>
      <trkpt lat="43.1498" lon="1.05452">
        <ele>453.3</ele>
        <time>2018-04-20T11:32:59.000Z</time>
      </trkpt>
      <trkpt lat="43.15023" lon="1.0545">
        <ele>450.9</ele>
        <time>2018-04-20T11:33:5.000Z</time>
      </trkpt>
      <trkpt lat="43.1506" lon="1.05446">
        <ele>448.5</ele>
        <time>2018-04-20T11:33:10.000Z</time>
      </trkpt>
      <trkpt lat="43.15093" lon="1.05416">
        <ele>445.6</ele>
        <time>2018-04-20T11:33:16.000Z</time>
      </trkpt>
      <trkpt lat="43.1512" lon="1.05379">
        <ele>442.7</ele>
        <time>2018-04-20T11:33:22.000Z</time>
      </trkpt>
      <trkpt lat="43.15147" lon="1.05346">
        <ele>439.8</ele>
        <time>2018-04-20T11:33:28.000Z</time>
      </trkpt>
      <trkpt lat="43.15174" lon="1.05313">
        <ele>436.8</ele>
        <time>2018-04-20T11:33:34.000Z</time>
      </trkpt>
      <trkpt lat="43.15205" lon="1.0528">
        <ele>433.7</ele>
        <time>2018-04-20T11:33:40.000Z</time>
      </trkpt>
      <trkpt lat="43.15236" lon="1.05251">
        <ele>430.9</ele>
        <time>2018-04-20T11:33:46.000Z</time>
      </trkpt>
      <trkpt lat="43.15261" lon="1.05207">
        <ele>427.4</ele>
        <time>2018-04-20T11:33:53.000Z</time>
      </trkpt>
      <trkpt lat="43.15286" lon="1.0517">
        <ele>422.6</ele>
        <time>2018-04-20T11:34:3.000Z</time>
      </trkpt>
      <trkpt lat="43.15289" lon="1.05222">
        <ele>409.2</ele>
        <time>2018-04-20T11:35:5.000Z</time>
      </trkpt>
      <trkpt lat="43.15287" lon="1.05275">
        <ele>408.1</ele>
        <time>2018-04-20T11:35:12.000Z</time>
      </trkpt>
      <trkpt lat="43.15284" lon="1.05327">
        <ele>406.8</ele>
        <time>2018-04-20T11:35:19.000Z</time>
      </trkpt>
      <trkpt lat="43.15284" lon="1.05381">
        <ele>404.9</ele>
        <time>2018-04-20T11:35:26.000Z</time>
      </trkpt>
      <trkpt lat="43.15309" lon="1.05416">
        <ele>402.6</ele>
        <time>2018-04-20T11:35:34.000Z</time>
      </trkpt>
      <trkpt lat="43.15346" lon="1.05436">
        <ele>400.3</ele>
        <time>2018-04-20T11:35:41.000Z</time>
      </trkpt>
      <trkpt lat="43.15378" lon="1.05461">
        <ele>398.3</ele>
        <time>2018-04-20T11:35:47.000Z</time>
      </trkpt>
      <trkpt lat="43.15409" lon="1.05495">
        <ele>395.8</ele>
        <time>2018-04-20T11:35:54.000Z</time>
      </trkpt>
      <trkpt lat="43.15438" lon="1.05527">
        <ele>393.4</ele>
        <time>2018-04-20T11:36:1.000Z</time>
      </trkpt>
      <trkpt lat="43.15466" lon="1.05559">
        <ele>391.1</ele>
        <time>2018-04-20T11:36:9.000Z</time>
      </trkpt>
      <trkpt lat="43.15493" lon="1.05596">
        <ele>388.4</ele>
        <time>2018-04-20T11:36:24.000Z</time>
      </trkpt>
      <trkpt lat="43.15511" lon="1.05639">
        <ele>387</ele>
        <time>2018-04-20T11:36:36.000Z</time>
      </trkpt>
      <trkpt lat="43.15527" lon="1.05683">
        <ele>385.1</ele>
        <time>2018-04-20T11:36:47.000Z</time>
      </trkpt>
      <trkpt lat="43.15547" lon="1.05726">
        <ele>384.9</ele>
        <time>2018-04-20T11:36:58.000Z</time>
      </trkpt>
      <trkpt lat="43.15568" lon="1.05768">
        <ele>384.7</ele>
        <time>2018-04-20T11:37:8.000Z</time>
      </trkpt>
      <trkpt lat="43.15604" lon="1.05779">
        <ele>384.5</ele>
        <time>2018-04-20T11:37:24.000Z</time>
      </trkpt>
      <trkpt lat="43.1563" lon="1.05744">
        <ele>384</ele>
        <time>2018-04-20T11:37:40.000Z</time>
      </trkpt>
      <trkpt lat="43.15655" lon="1.05705">
        <ele>382.3</ele>
        <time>2018-04-20T11:37:54.000Z</time>
      </trkpt>
      <trkpt lat="43.15685" lon="1.05673">
        <ele>381.5</ele>
        <time>2018-04-20T11:38:4.000Z</time>
      </trkpt>
      <trkpt lat="43.1572" lon="1.05658">
        <ele>381.3</ele>
        <time>2018-04-20T11:38:17.000Z</time>
      </trkpt>
      <trkpt lat="43.15723" lon="1.05606">
        <ele>381.3</ele>
        <time>2018-04-20T11:38:28.000Z</time>
      </trkpt>
      <trkpt lat="43.15752" lon="1.05577">
        <ele>379.4</ele>
        <time>2018-04-20T11:38:48.000Z</time>
      </trkpt>
      <trkpt lat="43.15789" lon="1.05558">
        <ele>377.8</ele>
        <time>2018-04-20T11:39:17.000Z</time>
      </trkpt>
      <trkpt lat="43.15813" lon="1.0552">
        <ele>377.7</ele>
        <time>2018-04-20T11:39:30.000Z</time>
      </trkpt>
      <trkpt lat="43.15815" lon="1.05469">
        <ele>377.5</ele>
        <time>2018-04-20T11:39:43.000Z</time>
      </trkpt>
      <trkpt lat="43.15807" lon="1.05421">
        <ele>375.5</ele>
        <time>2018-04-20T11:45:37.000Z</time>
      </trkpt>
      <trkpt lat="43.15795" lon="1.05373">
        <ele>374.9</ele>
        <time>2018-04-20T11:46:1.000Z</time>
      </trkpt>
      <trkpt lat="43.15778" lon="1.05327">
        <ele>378</ele>
        <time>2018-04-20T11:46:21.000Z</time>
      </trkpt>
      <trkpt lat="43.158" lon="1.05286">
        <ele>382</ele>
        <time>2018-04-20T11:47:36.000Z</time>
      </trkpt>
      <trkpt lat="43.15831" lon="1.05261">
        <ele>382.4</ele>
        <time>2018-04-20T11:47:55.000Z</time>
      </trkpt>
      <trkpt lat="43.15853" lon="1.0522">
        <ele>382.6</ele>
        <time>2018-04-20T11:48:9.000Z</time>
      </trkpt>
      <trkpt lat="43.15879" lon="1.05183">
        <ele>382.6</ele>
        <time>2018-04-20T11:48:23.000Z</time>
      </trkpt>
      <trkpt lat="43.1591" lon="1.05157">
        <ele>382.5</ele>
        <time>2018-04-20T11:48:41.000Z</time>
      </trkpt>
      <trkpt lat="43.1594" lon="1.05131">
        <ele>382.7</ele>
        <time>2018-04-20T11:48:55.000Z</time>
      </trkpt>
      <trkpt lat="43.15971" lon="1.05103">
        <ele>383.1</ele>
        <time>2018-04-20T11:49:10.000Z</time>
      </trkpt>
      <trkpt lat="43.16001" lon="1.05076">
        <ele>384.3</ele>
        <time>2018-04-20T11:49:24.000Z</time>
      </trkpt>
      <trkpt lat="43.16037" lon="1.05067">
        <ele>387</ele>
        <time>2018-04-20T11:50:12.000Z</time>
      </trkpt>
      <trkpt lat="43.16074" lon="1.05059">
        <ele>387.1</ele>
        <time>2018-04-20T11:50:28.000Z</time>
      </trkpt>
      <trkpt lat="43.16096" lon="1.05019">
        <ele>388.4</ele>
        <time>2018-04-20T11:51:2.000Z</time>
      </trkpt>
      <trkpt lat="43.16128" lon="1.04992">
        <ele>390.3</ele>
        <time>2018-04-20T11:51:23.000Z</time>
      </trkpt>
      <trkpt lat="43.16159" lon="1.04965">
        <ele>392.7</ele>
        <time>2018-04-20T11:51:41.000Z</time>
      </trkpt>
      <trkpt lat="43.16187" lon="1.0493">
        <ele>395.1</ele>
        <time>2018-04-20T11:51:58.000Z</time>
      </trkpt>
      <trkpt lat="43.16214" lon="1.04898">
        <ele>396.7</ele>
        <time>2018-04-20T11:52:14.000Z</time>
      </trkpt>
      <trkpt lat="43.16238" lon="1.04857">
        <ele>397.8</ele>
        <time>2018-04-20T11:52:28.000Z</time>
      </trkpt>
      <trkpt lat="43.16265" lon="1.0482">
        <ele>399.1</ele>
        <time>2018-04-20T11:52:43.000Z</time>
      </trkpt>
      <trkpt lat="43.16281" lon="1.04776">
        <ele>399.9</ele>
        <time>2018-04-20T11:53:16.000Z</time>
      </trkpt>
      <trkpt lat="43.16313" lon="1.04749">
        <ele>400.1</ele>
        <time>2018-04-20T11:53:47.000Z</time>
      </trkpt>
      <trkpt lat="43.1635" lon="1.0473">
        <ele>400</ele>
        <time>2018-04-20T11:54:2.000Z</time>
      </trkpt>
      <trkpt lat="43.16385" lon="1.04714">
        <ele>399.2</ele>
        <time>2018-04-20T11:54:12.000Z</time>
      </trkpt>
      <trkpt lat="43.16422" lon="1.04715">
        <ele>398.2</ele>
        <time>2018-04-20T11:54:26.000Z</time>
      </trkpt>
      <trkpt lat="43.16459" lon="1.04735">
        <ele>396.8</ele>
        <time>2018-04-20T11:55:2.000Z</time>
      </trkpt>
      <trkpt lat="43.16492" lon="1.04763">
        <ele>395.4</ele>
        <time>2018-04-20T11:55:12.000Z</time>
      </trkpt>
      <trkpt lat="43.16522" lon="1.0479">
        <ele>393.9</ele>
        <time>2018-04-20T11:55:21.000Z</time>
      </trkpt>
      <trkpt lat="43.16525" lon="1.0479">
        <ele>387.4</ele>
        <time>2018-04-20T11:56:17.000Z</time>
      </trkpt>
      <trkpt lat="43.16556" lon="1.04765">
        <ele>387.5</ele>
        <time>2018-04-20T11:56:49.000Z</time>
      </trkpt>
      <trkpt lat="43.16592" lon="1.04776">
        <ele>387</ele>
        <time>2018-04-20T11:57:14.000Z</time>
      </trkpt>
      <trkpt lat="43.16611" lon="1.04819">
        <ele>383.1</ele>
        <time>2018-04-20T11:59:0.000Z</time>
      </trkpt>
      <trkpt lat="43.16645" lon="1.0484">
        <ele>381.7</ele>
        <time>2018-04-20T11:59:21.000Z</time>
      </trkpt>
      <trkpt lat="43.16672" lon="1.04872">
        <ele>378</ele>
        <time>2018-04-20T11:59:37.000Z</time>
      </trkpt>
      <trkpt lat="43.16699" lon="1.04908">
        <ele>371.2</ele>
        <time>2018-04-20T12:00:0.000Z</time>
      </trkpt>
      <trkpt lat="43.16735" lon="1.04919">
        <ele>362.7</ele>
        <time>2018-04-20T12:00:44.000Z</time>
      </trkpt>
      <trkpt lat="43.16768" lon="1.04939">
        <ele>355.9</ele>
        <time>2018-04-20T12:01:20.000Z</time>
      </trkpt>
      <trkpt lat="43.168" lon="1.04962">
        <ele>350.4</ele>
        <time>2018-04-20T12:01:55.000Z</time>
      </trkpt>
      <trkpt lat="43.16832" lon="1.04988">
        <ele>345.6</ele>
        <time>2018-04-20T12:02:33.000Z</time>
      </trkpt>
      <trkpt lat="43.16817" lon="1.05034">
        <ele>347.2</ele>
        <time>2018-04-20T12:03:28.000Z</time>
      </trkpt>
      <trkpt lat="43.16801" lon="1.05079">
        <ele>349</ele>
        <time>2018-04-20T12:03:57.000Z</time>
      </trkpt>
      <trkpt lat="43.1679" lon="1.05127">
        <ele>350.1</ele>
        <time>2018-04-20T12:04:25.000Z</time>
      </trkpt>
      <trkpt lat="43.16803" lon="1.05174">
        <ele>351.2</ele>
        <time>2018-04-20T12:05:2.000Z</time>
      </trkpt>
      <trkpt lat="43.16837" lon="1.05194">
        <ele>351.9</ele>
        <time>2018-04-20T12:05:30.000Z</time>
      </trkpt>
      <trkpt lat="43.16873" lon="1.05195">
        <ele>354.3</ele>
        <time>2018-04-20T12:06:4.000Z</time>
      </trkpt>
      <trkpt lat="43.16905" lon="1.05221">
        <ele>356.6</ele>
        <time>2018-04-20T12:07:28.000Z</time>
      </trkpt>
      <trkpt lat="43.16929" lon="1.0526">
        <ele>354.9</ele>
        <time>2018-04-20T12:07:46.000Z</time>
      </trkpt>
      <trkpt lat="43.16948" lon="1.05303">
        <ele>352.7</ele>
        <time>2018-04-20T12:07:58.000Z</time>
      </trkpt>
      <trkpt lat="43.16962" lon="1.0535">
        <ele>348.7</ele>
        <time>2018-04-20T12:08:17.000Z</time>
      </trkpt>
      <trkpt lat="43.16976" lon="1.05396">
        <ele>339.3</ele>
        <time>2018-04-20T12:09:31.000Z</time>
      </trkpt>
      <trkpt lat="43.16957" lon="1.05441">
        <ele>338.7</ele>
        <time>2018-04-20T12:09:59.000Z</time>
      </trkpt>
      <trkpt lat="43.16946" lon="1.05466">
        <ele>335.6</ele>
        <time>2018-04-20T12:10:20.000Z</time>
      </trkpt>
      <trkpt lat="43.16971" lon="1.05477">
        <ele>339.8</ele>
        <time>2018-04-20T12:11:34.000Z</time>
      </trkpt>
      <trkpt lat="43.17007" lon="1.05489">
        <ele>337.7</ele>
        <time>2018-04-20T12:11:46.000Z</time>
      </trkpt>
      <trkpt lat="43.17036" lon="1.05526">
        <ele>334.3</ele>
        <time>2018-04-20T12:14:53.000Z</time>
      </trkpt>
      <trkpt lat="43.17058" lon="1.05573">
        <ele>334.9</ele>
        <time>2018-04-20T12:15:4.000Z</time>
      </trkpt>
      <trkpt lat="43.17083" lon="1.05614">
        <ele>335.2</ele>
        <time>2018-04-20T12:15:14.000Z</time>
      </trkpt>
      <trkpt lat="43.17104" lon="1.05653">
        <ele>336.2</ele>
        <time>2018-04-20T12:15:39.000Z</time>
      </trkpt>
      <trkpt lat="43.17125" lon="1.05696">
        <ele>336.4</ele>
        <time>2018-04-20T12:15:56.000Z</time>
      </trkpt>
      <trkpt lat="43.17153" lon="1.05728">
        <ele>336.3</ele>
        <time>2018-04-20T12:16:25.000Z</time>
      </trkpt>
      <trkpt lat="43.17183" lon="1.05757">
        <ele>336.5</ele>
        <time>2018-04-20T12:17:3.000Z</time>
      </trkpt>
      <trkpt lat="43.17206" lon="1.05795">
        <ele>336.3</ele>
        <time>2018-04-20T12:17:35.000Z</time>
      </trkpt>
      <trkpt lat="43.17217" lon="1.05843">
        <ele>334.4</ele>
        <time>2018-04-20T12:18:6.000Z</time>
      </trkpt>
      <trkpt lat="43.17254" lon="1.05843">
        <ele>333</ele>
        <time>2018-04-20T12:19:28.000Z</time>
      </trkpt>
      <trkpt lat="43.1729" lon="1.05845">
        <ele>333.1</ele>
        <time>2018-04-20T12:20:12.000Z</time>
      </trkpt>
      <trkpt lat="43.17326" lon="1.05859">
        <ele>332.6</ele>
        <time>2018-04-20T12:20:26.000Z</time>
      </trkpt>
      <trkpt lat="43.1736" lon="1.05877">
        <ele>331.8</ele>
        <time>2018-04-20T12:20:37.000Z</time>
      </trkpt>
      <trkpt lat="43.17396" lon="1.0589">
        <ele>330.9</ele>
        <time>2018-04-20T12:20:50.000Z</time>
      </trkpt>
      <trkpt lat="43.17432" lon="1.05897">
        <ele>327.1</ele>
        <time>2018-04-20T12:21:26.000Z</time>
      </trkpt>
      <trkpt lat="43.17467" lon="1.05908">
        <ele>324.1</ele>
        <time>2018-04-20T12:21:50.000Z</time>
      </trkpt>
      <trkpt lat="43.17498" lon="1.05882">
        <ele>321.1</ele>
        <time>2018-04-20T12:22:45.000Z</time>
      </trkpt>
      <trkpt lat="43.17513" lon="1.05836">
        <ele>321.5</ele>
        <time>2018-04-20T12:23:14.000Z</time>
      </trkpt>
      <trkpt lat="43.17544" lon="1.0581">
        <ele>321.7</ele>
        <time>2018-04-20T12:23:45.000Z</time>
      </trkpt>
      <trkpt lat="43.17581" lon="1.05815">
        <ele>321.8</ele>
        <time>2018-04-20T12:23:59.000Z</time>
      </trkpt>
      <trkpt lat="43.17617" lon="1.05823">
        <ele>319.9</ele>
        <time>2018-04-20T12:24:46.000Z</time>
      </trkpt>
      <trkpt lat="43.17653" lon="1.05803">
        <ele>319.5</ele>
        <time>2018-04-20T12:25:7.000Z</time>
      </trkpt>
      <trkpt lat="43.17673" lon="1.05761">
        <ele>320.2</ele>
        <time>2018-04-20T12:25:25.000Z</time>
      </trkpt>
      <trkpt lat="43.17698" lon="1.05725">
        <ele>321.8</ele>
        <time>2018-04-20T12:25:50.000Z</time>
      </trkpt>
      <trkpt lat="43.17724" lon="1.0569">
        <ele>327.2</ele>
        <time>2018-04-20T12:26:31.000Z</time>
      </trkpt>
      <trkpt lat="43.17749" lon="1.05653">
        <ele>333</ele>
        <time>2018-04-20T12:27:10.000Z</time>
      </trkpt>
      <trkpt lat="43.17769" lon="1.05611">
        <ele>340.1</ele>
        <time>2018-04-20T12:27:57.000Z</time>
      </trkpt>
      <trkpt lat="43.17793" lon="1.05571">
        <ele>344.5</ele>
        <time>2018-04-20T12:28:26.000Z</time>
      </trkpt>
      <trkpt lat="43.17807" lon="1.05525">
        <ele>347.4</ele>
        <time>2018-04-20T12:28:57.000Z</time>
      </trkpt>
      <trkpt lat="43.1783" lon="1.05486">
        <ele>346</ele>
        <time>2018-04-20T12:29:33.000Z</time>
      </trkpt>
      <trkpt lat="43.17843" lon="1.05439">
        <ele>348.6</ele>
        <time>2018-04-20T12:30:4.000Z</time>
      </trkpt>
      <trkpt lat="43.17855" lon="1.05392">
        <ele>351.4</ele>
        <time>2018-04-20T12:30:45.000Z</time>
      </trkpt>
      <trkpt lat="43.17871" lon="1.05347">
        <ele>354.9</ele>
        <time>2018-04-20T12:31:15.000Z</time>
      </trkpt>
      <trkpt lat="43.17879" lon="1.05298">
        <ele>359.8</ele>
        <time>2018-04-20T12:31:58.000Z</time>
      </trkpt>
      <trkpt lat="43.17896" lon="1.05253">
        <ele>361.8</ele>
        <time>2018-04-20T12:33:14.000Z</time>
      </trkpt>
      <trkpt lat="43.17932" lon="1.05229">
        <ele>358.2</ele>
        <time>2018-04-20T12:33:30.000Z</time>
      </trkpt>
      <trkpt lat="43.17967" lon="1.05215">
        <ele>356</ele>
        <time>2018-04-20T12:33:38.000Z</time>
      </trkpt>
      <trkpt lat="43.18002" lon="1.05206">
        <ele>352.9</ele>
        <time>2018-04-20T12:33:47.000Z</time>
      </trkpt>
      <trkpt lat="43.1803" lon="1.05171">
        <ele>349</ele>
        <time>2018-04-20T12:34:4.000Z</time>
      </trkpt>
      <trkpt lat="43.18068" lon="1.05154">
        <ele>346.9</ele>
        <time>2018-04-20T12:34:14.000Z</time>
      </trkpt>
      <trkpt lat="43.18105" lon="1.05148">
        <ele>344.5</ele>
        <time>2018-04-20T12:34:26.000Z</time>
      </trkpt>
      <trkpt lat="43.18141" lon="1.05128">
        <ele>342.4</ele>
        <time>2018-04-20T12:34:48.000Z</time>
      </trkpt>
      <trkpt lat="43.18174" lon="1.05109">
        <ele>341.3</ele>
        <time>2018-04-20T12:35:2.000Z</time>
      </trkpt>
      <trkpt lat="43.1821" lon="1.05096">
        <ele>340.6</ele>
        <time>2018-04-20T12:35:15.000Z</time>
      </trkpt>
      <trkpt lat="43.1823" lon="1.05053">
        <ele>337.3</ele>
        <time>2018-04-20T12:35:47.000Z</time>
      </trkpt>
      <trkpt lat="43.18236" lon="1.05104">
        <ele>334.4</ele>
        <time>2018-04-20T12:37:29.000Z</time>
      </trkpt>
      <trkpt lat="43.18246" lon="1.05152">
        <ele>328.8</ele>
        <time>2018-04-20T12:37:48.000Z</time>
      </trkpt>
      <trkpt lat="43.18255" lon="1.052">
        <ele>319.4</ele>
        <time>2018-04-20T12:38:12.000Z</time>
      </trkpt>
      <trkpt lat="43.18255" lon="1.0525">
        <ele>312.1</ele>
        <time>2018-04-20T12:38:31.000Z</time>
      </trkpt>
      <trkpt lat="43.18281" lon="1.05285">
        <ele>300.6</ele>
        <time>2018-04-20T12:39:23.000Z</time>
      </trkpt>
      <trkpt lat="43.18316" lon="1.05305">
        <ele>298.9</ele>
        <time>2018-04-20T12:39:56.000Z</time>
      </trkpt>
      <trkpt lat="43.18348" lon="1.05334">
        <ele>299.4</ele>
        <time>2018-04-20T12:40:13.000Z</time>
      </trkpt>
      <trkpt lat="43.18365" lon="1.0538">
        <ele>300.3</ele>
        <time>2018-04-20T12:40:27.000Z</time>
      </trkpt>
      <trkpt lat="43.18379" lon="1.05401">
        <ele>303.6</ele>
        <time>2018-04-20T12:40:40.000Z</time>
      </trkpt>
      <trkpt lat="43.1839" lon="1.05398">
        <ele>305</ele>
        <time>2018-04-20T12:41:36.000Z</time>
      </trkpt>
      <trkpt lat="43.18403" lon="1.05386">
        <ele>307.9</ele>
        <time>2018-04-20T12:45:19.000Z</time>
      </trkpt>
      <trkpt lat="43.18408" lon="1.05367">
        <ele>314.2</ele>
        <time>2018-04-20T12:48:36.000Z</time>
      </trkpt>
      <trkpt lat="43.18419" lon="1.0532">
        <ele>323.3</ele>
        <time>2018-04-20T12:49:45.000Z</time>
      </trkpt>
      <trkpt lat="43.18425" lon="1.05271">
        <ele>330.9</ele>
        <time>2018-04-20T12:50:34.000Z</time>
      </trkpt>
      <trkpt lat="43.18405" lon="1.05228">
        <ele>338.3</ele>
        <time>2018-04-20T12:52:32.000Z</time>
      </trkpt>
      <trkpt lat="43.18378" lon="1.05194">
        <ele>337.3</ele>
        <time>2018-04-20T12:52:48.000Z</time>
      </trkpt>
      <trkpt lat="43.18352" lon="1.05161">
        <ele>334.4</ele>
        <time>2018-04-20T12:53:3.000Z</time>
      </trkpt>
      <trkpt lat="43.1835" lon="1.05109">
        <ele>330.6</ele>
        <time>2018-04-20T12:53:16.000Z</time>
      </trkpt>
      <trkpt lat="43.18342" lon="1.05057">
        <ele>327.4</ele>
        <time>2018-04-20T12:53:29.000Z</time>
      </trkpt>
      <trkpt lat="43.18328" lon="1.05007">
        <ele>324.5</ele>
        <time>2018-04-20T12:53:41.000Z</time>
      </trkpt>
      <trkpt lat="43.18326" lon="1.04955">
        <ele>321.5</ele>
        <time>2018-04-20T12:53:53.000Z</time>
      </trkpt>
      <trkpt lat="43.18335" lon="1.04907">
        <ele>319.4</ele>
        <time>2018-04-20T12:54:22.000Z</time>
      </trkpt>
      <trkpt lat="43.18343" lon="1.04858">
        <ele>324.3</ele>
        <time>2018-04-20T12:55:5.000Z</time>
      </trkpt>
      <trkpt lat="43.1835" lon="1.04809">
        <ele>332</ele>
        <time>2018-04-20T12:55:54.000Z</time>
      </trkpt>
      <trkpt lat="43.18361" lon="1.04761">
        <ele>334.3</ele>
        <time>2018-04-20T12:56:15.000Z</time>
      </trkpt>
      <trkpt lat="43.18365" lon="1.0471">
        <ele>335.9</ele>
        <time>2018-04-20T12:56:34.000Z</time>
      </trkpt>
      <trkpt lat="43.18369" lon="1.04659">
        <ele>336.7</ele>
        <time>2018-04-20T12:56:47.000Z</time>
      </trkpt>
      <trkpt lat="43.18376" lon="1.0461">
        <ele>336.1</ele>
        <time>2018-04-20T12:56:56.000Z</time>
      </trkpt>
      <trkpt lat="43.18375" lon="1.04559">
        <ele>332.4</ele>
        <time>2018-04-20T12:58:15.000Z</time>
      </trkpt>
      <trkpt lat="43.18362" lon="1.0451">
        <ele>331.9</ele>
        <time>2018-04-20T12:58:21.000Z</time>
      </trkpt>
      <trkpt lat="43.1835" lon="1.0446">
        <ele>331.1</ele>
        <time>2018-04-20T12:58:29.000Z</time>
      </trkpt>
      <trkpt lat="43.18346" lon="1.0441">
        <ele>330.6</ele>
        <time>2018-04-20T12:58:41.000Z</time>
      </trkpt>
      <trkpt lat="43.18344" lon="1.04361">
        <ele>330.7</ele>
        <time>2018-04-20T12:58:52.000Z</time>
      </trkpt>
      <trkpt lat="43.18346" lon="1.04309">
        <ele>331.4</ele>
        <time>2018-04-20T12:59:9.000Z</time>
      </trkpt>
      <trkpt lat="43.18336" lon="1.04261">
        <ele>332.5</ele>
        <time>2018-04-20T12:59:25.000Z</time>
      </trkpt>
      <trkpt lat="43.18331" lon="1.04211">
        <ele>332.6</ele>
        <time>2018-04-20T12:59:37.000Z</time>
      </trkpt>
      <trkpt lat="43.18324" lon="1.0416">
        <ele>332.8</ele>
        <time>2018-04-20T12:59:51.000Z</time>
      </trkpt>
      <trkpt lat="43.18302" lon="1.04118">
        <ele>333.1</ele>
        <time>2018-04-20T13:00:6.000Z</time>
      </trkpt>
      <trkpt lat="43.18278" lon="1.04082">
        <ele>334.9</ele>
        <time>2018-04-20T13:00:25.000Z</time>
      </trkpt>
      <trkpt lat="43.18246" lon="1.04054">
        <ele>338.3</ele>
        <time>2018-04-20T13:04:16.000Z</time>
      </trkpt>
      <trkpt lat="43.18216" lon="1.04023">
        <ele>341</ele>
        <time>2018-04-20T13:04:43.000Z</time>
      </trkpt>
      <trkpt lat="43.18203" lon="1.03974">
        <ele>342</ele>
        <time>2018-04-20T13:04:57.000Z</time>
      </trkpt>
      <trkpt lat="43.18191" lon="1.03925">
        <ele>342.8</ele>
        <time>2018-04-20T13:05:13.000Z</time>
      </trkpt>
      <trkpt lat="43.18158" lon="1.039">
        <ele>344.5</ele>
        <time>2018-04-20T13:05:37.000Z</time>
      </trkpt>
      <trkpt lat="43.18121" lon="1.03903">
        <ele>346.6</ele>
        <time>2018-04-20T13:05:56.000Z</time>
      </trkpt>
      <trkpt lat="43.18085" lon="1.03895">
        <ele>347.9</ele>
        <time>2018-04-20T13:06:13.000Z</time>
      </trkpt>
      <trkpt lat="43.18048" lon="1.0391">
        <ele>349.6</ele>
        <time>2018-04-20T13:06:32.000Z</time>
      </trkpt>
      <trkpt lat="43.18014" lon="1.03925">
        <ele>350.5</ele>
        <time>2018-04-20T13:06:47.000Z</time>
      </trkpt>
      <trkpt lat="43.17977" lon="1.03927">
        <ele>351.7</ele>
        <time>2018-04-20T13:07:2.000Z</time>
      </trkpt>
      <trkpt lat="43.17945" lon="1.03899">
        <ele>352.7</ele>
        <time>2018-04-20T13:07:20.000Z</time>
      </trkpt>
      <trkpt lat="43.17909" lon="1.03881">
        <ele>353.4</ele>
        <time>2018-04-20T13:07:36.000Z</time>
      </trkpt>
      <trkpt lat="43.17875" lon="1.03867">
        <ele>354.1</ele>
        <time>2018-04-20T13:08:3.000Z</time>
      </trkpt>
      <trkpt lat="43.17903" lon="1.03835">
        <ele>355.3</ele>
        <time>2018-04-20T13:08:46.000Z</time>
      </trkpt>
      <trkpt lat="43.17939" lon="1.03825">
        <ele>355.4</ele>
        <time>2018-04-20T13:09:0.000Z</time>
      </trkpt>
      <trkpt lat="43.17976" lon="1.03816">
        <ele>355.5</ele>
        <time>2018-04-20T13:09:15.000Z</time>
      </trkpt>
      <trkpt lat="43.18014" lon="1.03807">
        <ele>356.1</ele>
        <time>2018-04-20T13:09:30.000Z</time>
      </trkpt>
      <trkpt lat="43.18052" lon="1.03802">
        <ele>358.1</ele>
        <time>2018-04-20T13:09:45.000Z</time>
      </trkpt>
      <trkpt lat="43.18089" lon="1.03806">
        <ele>360.5</ele>
        <time>2018-04-20T13:10:2.000Z</time>
      </trkpt>
      <trkpt lat="43.18125" lon="1.03804">
        <ele>363.2</ele>
        <time>2018-04-20T13:10:20.000Z</time>
      </trkpt>
      <trkpt lat="43.18154" lon="1.03769">
        <ele>366.1</ele>
        <time>2018-04-20T13:10:37.000Z</time>
      </trkpt>
      <trkpt lat="43.1817" lon="1.03723">
        <ele>368.8</ele>
        <time>2018-04-20T13:10:55.000Z</time>
      </trkpt>
      <trkpt lat="43.18183" lon="1.03676">
        <ele>370.6</ele>
        <time>2018-04-20T13:11:11.000Z</time>
      </trkpt>
      <trkpt lat="43.18197" lon="1.0363">
        <ele>372.2</ele>
        <time>2018-04-20T13:11:27.000Z</time>
      </trkpt>
      <trkpt lat="43.18227" lon="1.03602">
        <ele>372.9</ele>
        <time>2018-04-20T13:11:45.000Z</time>
      </trkpt>
      <trkpt lat="43.18263" lon="1.036">
        <ele>373</ele>
        <time>2018-04-20T13:11:56.000Z</time>
      </trkpt>
      <trkpt lat="43.18293" lon="1.03572">
        <ele>372.9</ele>
        <time>2018-04-20T13:12:13.000Z</time>
      </trkpt>
      <trkpt lat="43.18307" lon="1.03523">
        <ele>372.1</ele>
        <time>2018-04-20T13:12:26.000Z</time>
      </trkpt>
      <trkpt lat="43.18322" lon="1.03479">
        <ele>370.6</ele>
        <time>2018-04-20T13:12:36.000Z</time>
      </trkpt>
      <trkpt lat="43.18341" lon="1.03435">
        <ele>368.3</ele>
        <time>2018-04-20T13:12:44.000Z</time>
      </trkpt>
      <trkpt lat="43.18321" lon="1.03394">
        <ele>365.6</ele>
        <time>2018-04-20T13:12:59.000Z</time>
      </trkpt>
      <trkpt lat="43.1829" lon="1.03368">
        <ele>363.9</ele>
        <time>2018-04-20T13:13:15.000Z</time>
      </trkpt>
      <trkpt lat="43.18262" lon="1.03333">
        <ele>363.8</ele>
        <time>2018-04-20T13:13:32.000Z</time>
      </trkpt>
      <trkpt lat="43.18236" lon="1.03299">
        <ele>364</ele>
        <time>2018-04-20T13:13:54.000Z</time>
      </trkpt>
      <trkpt lat="43.18229" lon="1.03249">
        <ele>364.4</ele>
        <time>2018-04-20T13:14:39.000Z</time>
      </trkpt>
      <trkpt lat="43.1825" lon="1.03208">
        <ele>360.6</ele>
        <time>2018-04-20T13:21:18.000Z</time>
      </trkpt>
      <trkpt lat="43.18281" lon="1.03182">
        <ele>360.2</ele>
        <time>2018-04-20T13:22:5.000Z</time>
      </trkpt>
      <trkpt lat="43.18295" lon="1.03135">
        <ele>361</ele>
        <time>2018-04-20T13:22:33.000Z</time>
      </trkpt>
      <trkpt lat="43.18307" lon="1.03088">
        <ele>363.5</ele>
        <time>2018-04-20T13:22:58.000Z</time>
      </trkpt>
      <trkpt lat="43.18319" lon="1.03041">
        <ele>366.4</ele>
        <time>2018-04-20T13:23:19.000Z</time>
      </trkpt>
      <trkpt lat="43.18316" lon="1.02991">
        <ele>368</ele>
        <time>2018-04-20T13:23:35.000Z</time>
      </trkpt>
      <trkpt lat="43.18309" lon="1.02941">
        <ele>368.4</ele>
        <time>2018-04-20T13:23:48.000Z</time>
      </trkpt>
      <trkpt lat="43.18307" lon="1.02891">
        <ele>368.6</ele>
        <time>2018-04-20T13:24:3.000Z</time>
      </trkpt>
      <trkpt lat="43.18316" lon="1.02841">
        <ele>369.5</ele>
        <time>2018-04-20T13:25:1.000Z</time>
      </trkpt>
      <trkpt lat="43.18325" lon="1.02792">
        <ele>372.3</ele>
        <time>2018-04-20T13:26:20.000Z</time>
      </trkpt>
      <trkpt lat="43.1833" lon="1.0274">
        <ele>372.6</ele>
        <time>2018-04-20T13:26:36.000Z</time>
      </trkpt>
      <trkpt lat="43.18335" lon="1.02689">
        <ele>372.6</ele>
        <time>2018-04-20T13:27:8.000Z</time>
      </trkpt>
      <trkpt lat="43.1833" lon="1.02637">
        <ele>371.8</ele>
        <time>2018-04-20T13:27:19.000Z</time>
      </trkpt>
      <trkpt lat="43.18342" lon="1.02588">
        <ele>370.1</ele>
        <time>2018-04-20T13:27:28.000Z</time>
      </trkpt>
      <trkpt lat="43.18354" lon="1.02536">
        <ele>366.6</ele>
        <time>2018-04-20T13:27:49.000Z</time>
      </trkpt>
      <trkpt lat="43.1835" lon="1.02485">
        <ele>365.1</ele>
        <time>2018-04-20T13:28:8.000Z</time>
      </trkpt>
      <trkpt lat="43.18349" lon="1.02435">
        <ele>363.2</ele>
        <time>2018-04-20T13:28:33.000Z</time>
      </trkpt>
      <trkpt lat="43.18335" lon="1.02388">
        <ele>361.4</ele>
        <time>2018-04-20T13:29:4.000Z</time>
      </trkpt>
      <trkpt lat="43.18329" lon="1.02339">
        <ele>362.4</ele>
        <time>2018-04-20T13:29:36.000Z</time>
      </trkpt>
      <trkpt lat="43.18322" lon="1.02288">
        <ele>366.6</ele>
        <time>2018-04-20T13:30:10.000Z</time>
      </trkpt>
      <trkpt lat="43.18318" lon="1.02239">
        <ele>369.4</ele>
        <time>2018-04-20T13:30:40.000Z</time>
      </trkpt>
      <trkpt lat="43.18326" lon="1.02187">
        <ele>369.8</ele>
        <time>2018-04-20T13:30:59.000Z</time>
      </trkpt>
      <trkpt lat="43.18333" lon="1.02138">
        <ele>369.4</ele>
        <time>2018-04-20T13:31:9.000Z</time>
      </trkpt>
      <trkpt lat="43.18335" lon="1.02087">
        <ele>367.6</ele>
        <time>2018-04-20T13:31:17.000Z</time>
      </trkpt>
      <trkpt lat="43.18333" lon="1.02037">
        <ele>365.4</ele>
        <time>2018-04-20T13:31:25.000Z</time>
      </trkpt>
      <trkpt lat="43.18327" lon="1.01988">
        <ele>361.3</ele>
        <time>2018-04-20T13:31:42.000Z</time>
      </trkpt>
      <trkpt lat="43.18343" lon="1.01943">
        <ele>356.9</ele>
        <time>2018-04-20T13:32:16.000Z</time>
      </trkpt>
      <trkpt lat="43.18334" lon="1.01894">
        <ele>359</ele>
        <time>2018-04-20T13:32:54.000Z</time>
      </trkpt>
      <trkpt lat="43.18329" lon="1.01843">
        <ele>359.7</ele>
        <time>2018-04-20T13:33:9.000Z</time>
      </trkpt>
      <trkpt lat="43.18315" lon="1.01795">
        <ele>360</ele>
        <time>2018-04-20T13:33:24.000Z</time>
      </trkpt>
      <trkpt lat="43.18312" lon="1.01741">
        <ele>359.8</ele>
        <time>2018-04-20T13:33:35.000Z</time>
      </trkpt>
      <trkpt lat="43.18299" lon="1.01692">
        <ele>358.1</ele>
        <time>2018-04-20T13:34:6.000Z</time>
      </trkpt>
      <trkpt lat="43.18314" lon="1.01647">
        <ele>355.7</ele>
        <time>2018-04-20T13:34:40.000Z</time>
      </trkpt>
      <trkpt lat="43.18341" lon="1.01613">
        <ele>356.7</ele>
        <time>2018-04-20T13:35:1.000Z</time>
      </trkpt>
      <trkpt lat="43.18337" lon="1.01563">
        <ele>360.9</ele>
        <time>2018-04-20T13:35:30.000Z</time>
      </trkpt>
      <trkpt lat="43.18326" lon="1.01515">
        <ele>363.7</ele>
        <time>2018-04-20T13:36:7.000Z</time>
      </trkpt>
      <trkpt lat="43.18315" lon="1.01468">
        <ele>366.5</ele>
        <time>2018-04-20T13:36:52.000Z</time>
      </trkpt>
      <trkpt lat="43.18319" lon="1.01416">
        <ele>366.6</ele>
        <time>2018-04-20T13:37:29.000Z</time>
      </trkpt>
      <trkpt lat="43.18325" lon="1.01366">
        <ele>365.6</ele>
        <time>2018-04-20T13:37:46.000Z</time>
      </trkpt>
      <trkpt lat="43.18316" lon="1.01317">
        <ele>363.8</ele>
        <time>2018-04-20T13:38:7.000Z</time>
      </trkpt>
      <trkpt lat="43.18313" lon="1.01266">
        <ele>362.9</ele>
        <time>2018-04-20T13:38:37.000Z</time>
      </trkpt>
      <trkpt lat="43.18291" lon="1.01225">
        <ele>362.5</ele>
        <time>2018-04-20T13:39:5.000Z</time>
      </trkpt>
      <trkpt lat="43.18279" lon="1.01177">
        <ele>363.9</ele>
        <time>2018-04-20T13:39:35.000Z</time>
      </trkpt>
      <trkpt lat="43.18256" lon="1.01139">
        <ele>367.4</ele>
        <time>2018-04-20T13:40:9.000Z</time>
      </trkpt>
      <trkpt lat="43.1822" lon="1.01127">
        <ele>374.6</ele>
        <time>2018-04-20T13:41:22.000Z</time>
      </trkpt>
      <trkpt lat="43.18185" lon="1.01115">
        <ele>379.5</ele>
        <time>2018-04-20T13:41:57.000Z</time>
      </trkpt>
      <trkpt lat="43.18156" lon="1.01084">
        <ele>387.3</ele>
        <time>2018-04-20T13:42:58.000Z</time>
      </trkpt>
      <trkpt lat="43.18124" lon="1.0106">
        <ele>384.4</ele>
        <time>2018-04-20T13:43:50.000Z</time>
      </trkpt>
      <trkpt lat="43.18092" lon="1.01083">
        <ele>401.3</ele>
        <time>2018-04-20T13:45:49.000Z</time>
      </trkpt>
      <trkpt lat="43.18086" lon="1.01132">
        <ele>405.2</ele>
        <time>2018-04-20T13:46:34.000Z</time>
      </trkpt>
      <trkpt lat="43.18069" lon="1.01176">
        <ele>405.5</ele>
        <time>2018-04-20T13:46:55.000Z</time>
      </trkpt>
      <trkpt lat="43.18032" lon="1.01198">
        <ele>403.3</ele>
        <time>2018-04-20T13:47:4.000Z</time>
      </trkpt>
      <trkpt lat="43.18002" lon="1.01168">
        <ele>400.8</ele>
        <time>2018-04-20T13:47:21.000Z</time>
      </trkpt>
      <trkpt lat="43.17966" lon="1.01176">
        <ele>398.5</ele>
        <time>2018-04-20T13:47:48.000Z</time>
      </trkpt>
      <trkpt lat="43.17944" lon="1.01216">
        <ele>394.4</ele>
        <time>2018-04-20T13:48:2.000Z</time>
      </trkpt>
      <trkpt lat="43.17926" lon="1.01259">
        <ele>390.3</ele>
        <time>2018-04-20T13:48:15.000Z</time>
      </trkpt>
      <trkpt lat="43.17922" lon="1.0131">
        <ele>386.3</ele>
        <time>2018-04-20T13:48:35.000Z</time>
      </trkpt>
      <trkpt lat="43.17918" lon="1.0136">
        <ele>385.8</ele>
        <time>2018-04-20T13:48:53.000Z</time>
      </trkpt>
      <trkpt lat="43.17911" lon="1.0141">
        <ele>386.4</ele>
        <time>2018-04-20T13:49:9.000Z</time>
      </trkpt>
      <trkpt lat="43.17904" lon="1.01463">
        <ele>386.3</ele>
        <time>2018-04-20T13:49:23.000Z</time>
      </trkpt>
      <trkpt lat="43.17898" lon="1.01513">
        <ele>386.1</ele>
        <time>2018-04-20T13:49:32.000Z</time>
      </trkpt>
      <trkpt lat="43.17895" lon="1.01565">
        <ele>385.2</ele>
        <time>2018-04-20T13:49:42.000Z</time>
      </trkpt>
      <trkpt lat="43.17892" lon="1.01617">
        <ele>384.5</ele>
        <time>2018-04-20T13:49:54.000Z</time>
      </trkpt>
      <trkpt lat="43.17891" lon="1.01668">
        <ele>384.9</ele>
        <time>2018-04-20T13:50:9.000Z</time>
      </trkpt>
      <trkpt lat="43.17887" lon="1.01718">
        <ele>385.2</ele>
        <time>2018-04-20T13:50:22.000Z</time>
      </trkpt>
      <trkpt lat="43.17871" lon="1.01767">
        <ele>383.1</ele>
        <time>2018-04-20T13:50:33.000Z</time>
      </trkpt>
      <trkpt lat="43.1786" lon="1.01818">
        <ele>380.4</ele>
        <time>2018-04-20T13:50:43.000Z</time>
      </trkpt>
      <trkpt lat="43.17858" lon="1.01869">
        <ele>376.9</ele>
        <time>2018-04-20T13:50:54.000Z</time>
      </trkpt>
      <trkpt lat="43.17834" lon="1.01905">
        <ele>373.2</ele>
        <time>2018-04-20T13:51:5.000Z</time>
      </trkpt>
      <trkpt lat="43.17806" lon="1.01943">
        <ele>369.9</ele>
        <time>2018-04-20T13:51:13.000Z</time>
      </trkpt>
      <trkpt lat="43.17794" lon="1.0199">
        <ele>366.9</ele>
        <time>2018-04-20T13:51:24.000Z</time>
      </trkpt>
      <trkpt lat="43.17782" lon="1.02037">
        <ele>365.5</ele>
        <time>2018-04-20T13:51:34.000Z</time>
      </trkpt>
      <trkpt lat="43.17763" lon="1.02082">
        <ele>363.4</ele>
        <time>2018-04-20T13:51:42.000Z</time>
      </trkpt>
      <trkpt lat="43.17727" lon="1.02104">
        <ele>360.3</ele>
        <time>2018-04-20T13:51:50.000Z</time>
      </trkpt>
      <trkpt lat="43.17692" lon="1.02123">
        <ele>356.2</ele>
        <time>2018-04-20T13:52:0.000Z</time>
      </trkpt>
      <trkpt lat="43.17692" lon="1.0213">
        <ele>350.8</ele>
        <time>2018-04-20T13:52:55.000Z</time>
      </trkpt>
    </trkseg>
  </trk>
</gpx>